sensor_id;sensor_type;location;lat;lon;timestamp;pressure;altitude;pressure_sealevel;temperature;humidity
45113;BME280;30873;53.908;27.576;2022-11-20T00:04:34;1017.6;;;-0.6;66.2
45113;BME280;30873;53.908;27.576;2022-11-20T00:09:08;1017.6;;;-0.6;66.3
45113;BME280;30873;53.908;27.576;2022-11-20T00:14:46;1017.7;;;-0.4;65.6
45113;BME280;30873;53.908;27.576;2022-11-20T00:19:34;1017.9;;;-0.5;64
45113;BME280;30873;53.908;27.576;2022-11-20T00:24:30;1018;;;-0.6;62.1
45113;BME280;30873;53.908;27.576;2022-11-20T00:29:32;1018;;;-0.6;62.2
45113;BME280;30873;53.908;27.576;2022-11-20T00:34:08;1018.1;;;-0.5;61.5
45113;BME280;30873;53.908;27.576;2022-11-20T00:39:20;1018.1;;;-0.4;61.2
45113;BME280;30873;53.908;27.576;2022-11-20T00:44:48;1018.2;;;-0.4;60.9
45113;BME280;30873;53.908;27.576;2022-11-20T00:49:08;1018.2;;;-0.3;60.1
45113;BME280;30873;53.908;27.576;2022-11-20T00:54:34;1018.2;;;-0.4;60.1
45113;BME280;30873;53.908;27.576;2022-11-20T00:59:00;1018.4;;;-0.5;60.2
45113;BME280;30873;53.908;27.576;2022-11-20T01:04:08;1018.3;;;-0.4;60.5
45113;BME280;30873;53.908;27.576;2022-11-20T01:09:18;1018.3;;;-0.5;60.6
45113;BME280;30873;53.908;27.576;2022-11-20T01:14:32;1018.2;;;-0.5;59.9
45113;BME280;30873;53.908;27.576;2022-11-20T01:19:34;1018.2;;;-0.6;59.9
45113;BME280;30873;53.908;27.576;2022-11-20T01:24:10;1018.4;;;-0.5;60.4
45113;BME280;30873;53.908;27.576;2022-11-20T01:29:13;1018.4;;;-0.5;60.4
45113;BME280;30873;53.908;27.576;2022-11-20T01:34:52;1018.4;;;-0.5;60.6
45113;BME280;30873;53.908;27.576;2022-11-20T01:39:52;1018.4;;;-0.6;60.5
45113;BME280;30873;53.908;27.576;2022-11-20T01:44:43;1018.5;;;-0.6;60.3
45113;BME280;30873;53.908;27.576;2022-11-20T01:49:01;1018.5;;;-0.6;60.9
45113;BME280;30873;53.908;27.576;2022-11-20T01:54:00;1018.6;;;-0.7;61.2
45113;BME280;30873;53.908;27.576;2022-11-20T01:59:53;1018.5;;;-0.6;61
45113;BME280;30873;53.908;27.576;2022-11-20T02:04:24;1018.5;;;-0.6;61.1
45113;BME280;30873;53.908;27.576;2022-11-20T02:09:38;1018.4;;;-0.6;60.2
45113;BME280;30873;53.908;27.576;2022-11-20T02:14:12;1018.4;;;-0.7;60
45113;BME280;30873;53.908;27.576;2022-11-20T02:19:14;1018.5;;;-0.6;60.3
45113;BME280;30873;53.908;27.576;2022-11-20T02:24:36;1018.5;;;-0.8;60.2
45113;BME280;30873;53.908;27.576;2022-11-20T02:29:36;1018.6;;;-0.9;60.4
45113;BME280;30873;53.908;27.576;2022-11-20T02:34:26;1018.7;;;-0.9;60.5
45113;BME280;30873;53.908;27.576;2022-11-20T02:39:12;1018.7;;;-0.8;59.8
45113;BME280;30873;53.908;27.576;2022-11-20T02:44:12;1018.7;;;-0.7;59.8
45113;BME280;30873;53.908;27.576;2022-11-20T02:49:52;1018.7;;;-0.7;59
45113;BME280;30873;53.908;27.576;2022-11-20T02:54:52;1018.6;;;-0.7;59.3
45113;BME280;30873;53.908;27.576;2022-11-20T02:59:12;1018.6;;;-0.7;59.3
45113;BME280;30873;53.908;27.576;2022-11-20T03:04:00;1018.6;;;-0.7;59.2
45113;BME280;30873;53.908;27.576;2022-11-20T03:09:12;1018.6;;;-0.7;58.7
45113;BME280;30873;53.908;27.576;2022-11-20T03:14:52;1018.7;;;-0.7;58.8
45113;BME280;30873;53.908;27.576;2022-11-20T03:19:24;1018.8;;;-0.9;58.9
45113;BME280;30873;53.908;27.576;2022-11-20T03:24:38;1018.8;;;-1.1;59.1
45113;BME280;30873;53.908;27.576;2022-11-20T03:29:12;1018.8;;;-1.1;59.7
45113;BME280;30873;53.908;27.576;2022-11-20T03:34:22;1018.9;;;-1.2;59.6
45113;BME280;30873;53.908;27.576;2022-11-20T03:39:36;1018.9;;;-1.2;59.7
45113;BME280;30873;53.908;27.576;2022-11-20T03:44:36;1018.9;;;-1.1;59.5
45113;BME280;30873;53.908;27.576;2022-11-20T03:49:38;1018.9;;;-0.9;59.4
45113;BME280;30873;53.908;27.576;2022-11-20T03:54:24;1019;;;-0.9;59.6
45113;BME280;30873;53.908;27.576;2022-11-20T03:59:24;1019;;;-0.9;60.2
45113;BME280;30873;53.908;27.576;2022-11-20T04:04:52;1019;;;-0.8;60.2
45113;BME280;30873;53.908;27.576;2022-11-20T04:09:50;1019.1;;;-0.7;59.6
45113;BME280;30873;53.908;27.576;2022-11-20T04:14:24;1019;;;-0.9;59.2
45113;BME280;30873;53.908;27.576;2022-11-20T04:19:13;1019;;;-0.9;59.3
45113;BME280;30873;53.908;27.576;2022-11-20T04:24:00;1019.1;;;-1;59
45113;BME280;30873;53.908;27.576;2022-11-20T04:29:50;1019.1;;;-1.1;59.4
45113;BME280;30873;53.908;27.576;2022-11-20T04:34:12;1019.1;;;-1;59.4
45113;BME280;30873;53.908;27.576;2022-11-20T04:39:36;1019.1;;;-1.2;59.9
45113;BME280;30873;53.908;27.576;2022-11-20T04:44:12;1019;;;-1.1;60.2
45113;BME280;30873;53.908;27.576;2022-11-20T04:49:00;1018.9;;;-1.1;60.4
45113;BME280;30873;53.908;27.576;2022-11-20T04:54:10;1019;;;-1.2;60.7
45113;BME280;30873;53.908;27.576;2022-11-20T04:59:38;1019;;;-1.3;61.3
45113;BME280;30873;53.908;27.576;2022-11-20T05:04:52;1019.1;;;-1.2;61.2
45113;BME280;30873;53.908;27.576;2022-11-20T05:09:24;1019.2;;;-1.2;61.2
45113;BME280;30873;53.908;27.576;2022-11-20T05:14:00;1019.3;;;-1.3;60.9
45113;BME280;30873;53.908;27.576;2022-11-20T05:19:52;1019.2;;;-1.4;61.1
45113;BME280;30873;53.908;27.576;2022-11-20T05:24:50;1019.3;;;-1.4;61.2
45113;BME280;30873;53.908;27.576;2022-11-20T05:29:24;1019.3;;;-1.3;61
45113;BME280;30873;53.908;27.576;2022-11-20T05:34:22;1019.4;;;-1.4;61.2
45113;BME280;30873;53.908;27.576;2022-11-20T05:39:00;1019.4;;;-1.5;61.4
45113;BME280;30873;53.908;27.576;2022-11-20T05:44:52;1019.4;;;-1.4;61.6
45113;BME280;30873;53.908;27.576;2022-11-20T05:49:36;1019.4;;;-1.5;61.4
45113;BME280;30873;53.908;27.576;2022-11-20T05:54:12;1019.4;;;-1.5;61.5
45113;BME280;30873;53.908;27.576;2022-11-20T05:59:00;1019.4;;;-1.6;61.3
45113;BME280;30873;53.908;27.576;2022-11-20T06:04:00;1019.4;;;-1.5;61.4
45113;BME280;30873;53.908;27.576;2022-11-20T06:09:52;1019.3;;;-1.5;61.8
45113;BME280;30873;53.908;27.576;2022-11-20T06:14:38;1019.3;;;-1.6;61.7
45113;BME280;30873;53.908;27.576;2022-11-20T06:19:38;1019.3;;;-1.7;61.6
45113;BME280;30873;53.908;27.576;2022-11-20T06:24:24;1019.4;;;-1.7;61.4
45113;BME280;30873;53.908;27.576;2022-11-20T06:29:12;1019.5;;;-1.7;61.1
45113;BME280;30873;53.908;27.576;2022-11-20T06:34:52;1019.5;;;-1.6;61.1
45113;BME280;30873;53.908;27.576;2022-11-20T06:39:52;1019.6;;;-1.5;61.1
45113;BME280;30873;53.908;27.576;2022-11-20T06:44:00;1019.7;;;-1.5;60.9
45113;BME280;30873;53.908;27.576;2022-11-20T06:49:38;1019.8;;;-1.6;61.2
45113;BME280;30873;53.908;27.576;2022-11-20T06:54:12;1019.8;;;-1.5;61.3
45113;BME280;30873;53.908;27.576;2022-11-20T06:59:50;1019.7;;;-1.4;61.1
45113;BME280;30873;53.908;27.576;2022-11-20T07:04:00;1019.7;;;-1.5;61.2
45113;BME280;30873;53.908;27.576;2022-11-20T07:09:26;1019.7;;;-1.4;61.8
45113;BME280;30873;53.908;27.576;2022-11-20T07:14:10;1019.6;;;-1.4;61.5
45113;BME280;30873;53.908;27.576;2022-11-20T07:19:12;1019.6;;;-1.4;61.8
45113;BME280;30873;53.908;27.576;2022-11-20T07:24:38;1019.7;;;-1.3;61.4
45113;BME280;30873;53.908;27.576;2022-11-20T07:29:38;1019.8;;;-1.4;61.5
45113;BME280;30873;53.908;27.576;2022-11-20T07:34:38;1019.7;;;-1.4;61.9
45113;BME280;30873;53.908;27.576;2022-11-20T07:39:13;1019.7;;;-1.5;62.1
45113;BME280;30873;53.908;27.576;2022-11-20T07:44:00;1019.7;;;-1.4;62.3
45113;BME280;30873;53.908;27.576;2022-11-20T07:49:52;1019.7;;;-1.4;61.8
45113;BME280;30873;53.908;27.576;2022-11-20T07:54:52;1019.7;;;-1.4;61.9
45113;BME280;30873;53.908;27.576;2022-11-20T07:59:10;1019.7;;;-1.3;62
45113;BME280;30873;53.908;27.576;2022-11-20T08:04:38;1019.7;;;-1.1;61.6
45113;BME280;30873;53.908;27.576;2022-11-20T08:09:12;1019.8;;;-1;61.1
45113;BME280;30873;53.908;27.576;2022-11-20T08:14:52;1019.6;;;-1;60.8
45113;BME280;30873;53.908;27.576;2022-11-20T08:19:22;1019.5;;;-0.9;60.7
45113;BME280;30873;53.908;27.576;2022-11-20T08:24:36;1019.5;;;-0.6;60.3
45113;BME280;30873;53.908;27.576;2022-11-20T08:29:00;1019.6;;;-0.5;59.4
45113;BME280;30873;53.908;27.576;2022-11-20T08:34:00;1019.6;;;-0.3;59.2
45113;BME280;30873;53.908;27.576;2022-11-20T08:39:22;1019.7;;;-0.2;58.9
45113;BME280;30873;53.908;27.576;2022-11-20T08:44:38;1019.7;;;-0.2;58.3
45113;BME280;30873;53.908;27.576;2022-11-20T08:49:34;1019.5;;;-0.2;58.1
45113;BME280;30873;53.908;27.576;2022-11-20T08:54:12;1019.4;;;-0.2;58
45113;BME280;30873;53.908;27.576;2022-11-20T08:59:20;1019.5;;;-0.1;57.8
45113;BME280;30873;53.908;27.576;2022-11-20T09:04:46;1019.5;;;0.1;57.5
45113;BME280;30873;53.908;27.576;2022-11-20T09:09:30;1019.5;;;0.2;56.9
45113;BME280;30873;53.908;27.576;2022-11-20T09:14:50;1019.4;;;0;56.8
45113;BME280;30873;53.908;27.576;2022-11-20T09:19:00;1019.3;;;-0.1;57.2
45113;BME280;30873;53.908;27.576;2022-11-20T09:24:12;1019.3;;;0;57.5
45113;BME280;30873;53.908;27.576;2022-11-20T09:29:10;1019.2;;;0.2;57.4
45113;BME280;30873;53.908;27.576;2022-11-20T09:34:44;1019.2;;;0.3;56.8
45113;BME280;30873;53.908;27.576;2022-11-20T09:39:46;1019.2;;;0.2;56.5
45113;BME280;30873;53.908;27.576;2022-11-20T09:44:53;1019.1;;;0.2;56.3
45113;BME280;30873;53.908;27.576;2022-11-20T09:49:16;1019.1;;;0.1;56.4
45113;BME280;30873;53.908;27.576;2022-11-20T09:54:31;1019.1;;;0;56.5
45113;BME280;30873;53.908;27.576;2022-11-20T09:59:36;1019.1;;;0;56.9
45113;BME280;30873;53.908;27.576;2022-11-20T10:04:12;1019.1;;;0.2;56.1
45113;BME280;30873;53.908;27.576;2022-11-20T10:09:49;1019.1;;;0.2;55.3
45113;BME280;30873;53.908;27.576;2022-11-20T10:14:03;1019.1;;;0.1;55.8
45113;BME280;30873;53.908;27.576;2022-11-20T10:19:25;1019;;;0.3;55.4
45113;BME280;30873;53.908;27.576;2022-11-20T10:24:24;1018.9;;;0.3;55.5
45113;BME280;30873;53.908;27.576;2022-11-20T10:29:47;1018.9;;;0.2;55.9
45113;BME280;30873;53.908;27.576;2022-11-20T10:34:21;1019;;;0.3;56.1
45113;BME280;30873;53.908;27.576;2022-11-20T10:39:03;1018.9;;;0;56.4
45113;BME280;30873;53.908;27.576;2022-11-20T10:44:26;1018.9;;;0;56.5
45113;BME280;30873;53.908;27.576;2022-11-20T10:49:47;1018.8;;;0;56.7
45113;BME280;30873;53.908;27.576;2022-11-20T10:54:49;1018.8;;;-0.1;56.9
45113;BME280;30873;53.908;27.576;2022-11-20T10:59:50;1018.9;;;0.1;56.9
45113;BME280;30873;53.908;27.576;2022-11-20T11:04:23;1018.9;;;0.1;56.9
45113;BME280;30873;53.908;27.576;2022-11-20T11:09:34;1018.8;;;0.1;57.2
45113;BME280;30873;53.908;27.576;2022-11-20T11:14:41;1018.8;;;0.2;56.9
45113;BME280;30873;53.908;27.576;2022-11-20T11:19:22;1018.8;;;0.2;57.1
45113;BME280;30873;53.908;27.576;2022-11-20T11:24:51;1018.8;;;0.2;56.7
45113;BME280;30873;53.908;27.576;2022-11-20T11:29:15;1018.9;;;0.2;56.4
45113;BME280;30873;53.908;27.576;2022-11-20T11:34:36;1018.9;;;0;56.6
45113;BME280;30873;53.908;27.576;2022-11-20T11:39:22;1018.9;;;0;56.7
45113;BME280;30873;53.908;27.576;2022-11-20T11:44:48;1018.9;;;0;56.6
45113;BME280;30873;53.908;27.576;2022-11-20T11:49:15;1019;;;0;56.8
45113;BME280;30873;53.908;27.576;2022-11-20T11:54:38;1019.1;;;-0.1;56.8
45113;BME280;30873;53.908;27.576;2022-11-20T11:59:25;1019.1;;;-0.2;57.2
45113;BME280;30873;53.908;27.576;2022-11-20T12:04:52;1019.1;;;0;57.1
45113;BME280;30873;53.908;27.576;2022-11-20T12:09:52;1019;;;0.1;56.9
45113;BME280;30873;53.908;27.576;2022-11-20T12:14:48;1019;;;0;56.8
45113;BME280;30873;53.908;27.576;2022-11-20T12:19:13;1019;;;0;57.1
45113;BME280;30873;53.908;27.576;2022-11-20T12:24:37;1018.9;;;0;57.1
45113;BME280;30873;53.908;27.576;2022-11-20T12:29:39;1018.9;;;0.1;57.5
45113;BME280;30873;53.908;27.576;2022-11-20T12:34:03;1018.8;;;0.2;57.3
45113;BME280;30873;53.908;27.576;2022-11-20T12:39:50;1018.8;;;0.3;57.7
45113;BME280;30873;53.908;27.576;2022-11-20T12:44:13;1018.7;;;0.2;57.7
45113;BME280;30873;53.908;27.576;2022-11-20T12:49:37;1018.6;;;0.1;58
45113;BME280;30873;53.908;27.576;2022-11-20T12:54:38;1018.5;;;0.1;58.1
45113;BME280;30873;53.908;27.576;2022-11-20T12:59:52;1018.4;;;0;57.8
45113;BME280;30873;53.908;27.576;2022-11-20T13:04:27;1018.4;;;-0.1;57.9
45113;BME280;30873;53.908;27.576;2022-11-20T13:09:13;1018.4;;;-0.1;57.9
45113;BME280;30873;53.908;27.576;2022-11-20T13:14:26;1018.4;;;-0.2;57.9
45113;BME280;30873;53.908;27.576;2022-11-20T13:19:34;1018.5;;;-0.3;57.9
45113;BME280;30873;53.908;27.576;2022-11-20T13:24:24;1018.5;;;-0.3;57.7
45113;BME280;30873;53.908;27.576;2022-11-20T13:30:12;1018.5;;;-0.4;57.6
45113;BME280;30873;53.908;27.576;2022-11-20T13:34:11;1018.5;;;-0.3;57.7
45113;BME280;30873;53.908;27.576;2022-11-20T13:39:25;1018.4;;;-0.3;57.8
45113;BME280;30873;53.908;27.576;2022-11-20T13:44:09;1018.4;;;-0.3;57.9
45113;BME280;30873;53.908;27.576;2022-11-20T13:49:37;1018.4;;;-0.3;58.1
45113;BME280;30873;53.908;27.576;2022-11-20T13:54:55;1018.4;;;-0.2;58
45113;BME280;30873;53.908;27.576;2022-11-20T13:59:12;1018.3;;;-0.2;58.3
45113;BME280;30873;53.908;27.576;2022-11-20T14:04:48;1018.3;;;-0.1;58.3
45113;BME280;30873;53.908;27.576;2022-11-20T14:09:13;1018.3;;;-0.3;58.8
45113;BME280;30873;53.908;27.576;2022-11-20T14:14:34;1018.2;;;-0.3;59
45113;BME280;30873;53.908;27.576;2022-11-20T14:19:24;1018.2;;;-0.3;59.2
45113;BME280;30873;53.908;27.576;2022-11-20T14:24:04;1018.1;;;-0.4;59.2
45113;BME280;30873;53.908;27.576;2022-11-20T14:29:21;1018.1;;;-0.4;59.1
45113;BME280;30873;53.908;27.576;2022-11-20T14:34:12;1018;;;-0.4;59.4
45113;BME280;30873;53.908;27.576;2022-11-20T14:39:25;1017.9;;;-0.4;59.2
45113;BME280;30873;53.908;27.576;2022-11-20T14:44:49;1017.8;;;-0.4;59.5
45113;BME280;30873;53.908;27.576;2022-11-20T14:49:12;1017.8;;;-0.5;59.5
45113;BME280;30873;53.908;27.576;2022-11-20T14:54:34;1017.8;;;-0.5;59.4
45113;BME280;30873;53.908;27.576;2022-11-20T14:59:34;1017.8;;;-0.6;59.7
45113;BME280;30873;53.908;27.576;2022-11-20T15:04:32;1017.7;;;-0.6;59.7
45113;BME280;30873;53.908;27.576;2022-11-20T15:09:46;1017.6;;;-0.6;59.9
45113;BME280;30873;53.908;27.576;2022-11-20T15:14:10;1017.6;;;-0.6;59.8
45113;BME280;30873;53.908;27.576;2022-11-20T15:19:17;1017.5;;;-0.7;59.7
45113;BME280;30873;53.908;27.576;2022-11-20T15:24:22;1017.5;;;-0.7;59.8
45113;BME280;30873;53.908;27.576;2022-11-20T15:29:36;1017.5;;;-0.9;59.9
45113;BME280;30873;53.908;27.576;2022-11-20T15:34:20;1017.5;;;-0.9;59.9
45113;BME280;30873;53.908;27.576;2022-11-20T15:39:20;1017.4;;;-1;60
45113;BME280;30873;53.908;27.576;2022-11-20T15:44:22;1017.4;;;-1;60.3
45113;BME280;30873;53.908;27.576;2022-11-20T15:49:02;1017.4;;;-1;60.7
45113;BME280;30873;53.908;27.576;2022-11-20T15:54:22;1017.5;;;-1;60.7
45113;BME280;30873;53.908;27.576;2022-11-20T15:59:46;1017.4;;;-0.8;61
45113;BME280;30873;53.908;27.576;2022-11-20T16:04:00;1017.4;;;-0.7;60.7
45113;BME280;30873;53.908;27.576;2022-11-20T16:09:33;1017.4;;;-0.6;60.8
45113;BME280;30873;53.908;27.576;2022-11-20T16:14:32;1017.4;;;-0.5;60.8
45113;BME280;30873;53.908;27.576;2022-11-20T16:19:34;1017.3;;;-0.4;60.4
45113;BME280;30873;53.908;27.576;2022-11-20T16:24:46;1017.2;;;-0.4;60.5
45113;BME280;30873;53.908;27.576;2022-11-20T16:29:10;1017.2;;;-0.3;60.6
45113;BME280;30873;53.908;27.576;2022-11-20T16:34:46;1017.1;;;-0.3;60.5
45113;BME280;30873;53.908;27.576;2022-11-20T16:39:01;1017.1;;;-0.3;60.5
45113;BME280;30873;53.908;27.576;2022-11-20T16:44:34;1017;;;-0.4;60.8
45113;BME280;30873;53.908;27.576;2022-11-20T16:49:20;1017;;;-0.3;60.8
45113;BME280;30873;53.908;27.576;2022-11-20T16:54:01;1016.9;;;-0.4;60.9
45113;BME280;30873;53.908;27.576;2022-11-20T16:59:00;1016.9;;;-0.4;60.8
45113;BME280;30873;53.908;27.576;2022-11-20T17:04:28;1016.9;;;-0.3;60.8
45113;BME280;30873;53.908;27.576;2022-11-20T17:09:18;1016.8;;;-0.2;60.7
45113;BME280;30873;53.908;27.576;2022-11-20T17:14:47;1016.8;;;-0.1;60.4
45113;BME280;30873;53.908;27.576;2022-11-20T17:19:21;1016.8;;;-0.1;60.5
45113;BME280;30873;53.908;27.576;2022-11-20T17:24:30;1016.8;;;-0.1;60.7
45113;BME280;30873;53.908;27.576;2022-11-20T17:29:32;1016.8;;;-0.1;60.9
45113;BME280;30873;53.908;27.576;2022-11-20T17:34:32;1016.9;;;-0.1;61
45113;BME280;30873;53.908;27.576;2022-11-20T17:39:46;1016.8;;;-0.2;61.3
45113;BME280;30873;53.908;27.576;2022-11-20T17:44:00;1016.8;;;-0.3;61.5
45113;BME280;30873;53.908;27.576;2022-11-20T17:49:46;1016.8;;;-0.5;62.4
45113;BME280;30873;53.908;27.576;2022-11-20T17:54:46;1016.7;;;-0.5;62.7
45113;BME280;30873;53.908;27.576;2022-11-20T17:59:34;1016.6;;;-0.5;63
45113;BME280;30873;53.908;27.576;2022-11-20T18:04:20;1016.5;;;-0.3;62.9
45113;BME280;30873;53.908;27.576;2022-11-20T18:09:13;1016.5;;;-0.3;62.8
45113;BME280;30873;53.908;27.576;2022-11-20T18:14:20;1016.5;;;-0.4;63.3
45113;BME280;30873;53.908;27.576;2022-11-20T18:19:37;1016.5;;;-0.3;63.3
45113;BME280;30873;53.908;27.576;2022-11-20T18:24:00;1016.5;;;-0.2;63.2
45113;BME280;30873;53.908;27.576;2022-11-20T18:29:46;1016.5;;;0;63
45113;BME280;30873;53.908;27.576;2022-11-20T18:34:18;1016.5;;;-0.1;63
45113;BME280;30873;53.908;27.576;2022-11-20T18:39:35;1016.5;;;-0.2;63.4
45113;BME280;30873;53.908;27.576;2022-11-20T18:44:21;1016.5;;;-0.3;63.6
45113;BME280;30873;53.908;27.576;2022-11-20T18:49:35;1016.5;;;-0.4;64.3
45113;BME280;30873;53.908;27.576;2022-11-20T18:54:33;1016.5;;;-0.3;64.4
45113;BME280;30873;53.908;27.576;2022-11-20T18:59:11;1016.4;;;-0.4;64.6
45113;BME280;30873;53.908;27.576;2022-11-20T19:04:47;1016.4;;;-0.3;64.8
45113;BME280;30873;53.908;27.576;2022-11-20T19:09:47;1016.4;;;-0.5;64.8
45113;BME280;30873;53.908;27.576;2022-11-20T19:14:32;1016.4;;;-0.5;65.2
45113;BME280;30873;53.908;27.576;2022-11-20T19:19:33;1016.4;;;-0.4;65.2
45113;BME280;30873;53.908;27.576;2022-11-20T19:24:10;1016.3;;;-0.4;65.3
45113;BME280;30873;53.908;27.576;2022-11-20T19:29:23;1016.3;;;-0.3;65.3
45113;BME280;30873;53.908;27.576;2022-11-20T19:34:46;1016.3;;;-0.3;65.4
45113;BME280;30873;53.908;27.576;2022-11-20T19:39:11;1016.3;;;-0.4;65.7
45113;BME280;30873;53.908;27.576;2022-11-20T19:44:46;1016.2;;;-0.5;66.2
45113;BME280;30873;53.908;27.576;2022-11-20T19:49:11;1016.3;;;-0.3;65.9
45113;BME280;30873;53.908;27.576;2022-11-20T19:54:46;1016.3;;;-0.2;65.8
45113;BME280;30873;53.908;27.576;2022-11-20T19:59:22;1016.2;;;-0.3;65.8
45113;BME280;30873;53.908;27.576;2022-11-20T20:04:32;1016.1;;;-0.3;65.6
45113;BME280;30873;53.908;27.576;2022-11-20T20:09:30;1016;;;-0.4;65.5
45113;BME280;30873;53.908;27.576;2022-11-20T20:14:00;1015.9;;;-0.4;65.6
45113;BME280;30873;53.908;27.576;2022-11-20T20:19:46;1015.8;;;-0.4;65.5
45113;BME280;30873;53.908;27.576;2022-11-20T20:24:48;1015.7;;;-0.4;65.5
45113;BME280;30873;53.908;27.576;2022-11-20T20:29:34;1015.6;;;-0.4;65.4
45113;BME280;30873;53.908;27.576;2022-11-20T20:34:20;1015.6;;;-0.7;65.6
45113;BME280;30873;53.908;27.576;2022-11-20T20:39:01;1015.6;;;-0.8;66.1
45113;BME280;30873;53.908;27.576;2022-11-20T20:44:20;1015.7;;;-0.7;66.2
45113;BME280;30873;53.908;27.576;2022-11-20T20:49:45;1015.7;;;-0.6;66.1
45113;BME280;30873;53.908;27.576;2022-11-20T20:54:22;1015.6;;;-0.5;65.6
45113;BME280;30873;53.908;27.576;2022-11-20T20:59:49;1015.6;;;-0.7;65.7
45113;BME280;30873;53.908;27.576;2022-11-20T21:04:10;1015.5;;;-0.7;65.6
45113;BME280;30873;53.908;27.576;2022-11-20T21:09:38;1015.5;;;-0.9;65.7
45113;BME280;30873;53.908;27.576;2022-11-20T21:14:49;1015.6;;;-0.8;66.2
45113;BME280;30873;53.908;27.576;2022-11-20T21:19:32;1015.7;;;-0.7;66.2
45113;BME280;30873;53.908;27.576;2022-11-20T21:24:23;1015.7;;;-0.6;65.7
45113;BME280;30873;53.908;27.576;2022-11-20T21:29:00;1015.6;;;-0.6;65.4
45113;BME280;30873;53.908;27.576;2022-11-20T21:34:49;1015.6;;;-0.6;65.4
45113;BME280;30873;53.908;27.576;2022-11-20T21:39:49;1015.6;;;-0.7;65.5
45113;BME280;30873;53.908;27.576;2022-11-20T21:44:35;1015.6;;;-0.9;66
45113;BME280;30873;53.908;27.576;2022-11-20T21:49:21;1015.6;;;-0.8;65.9
45113;BME280;30873;53.908;27.576;2022-11-20T21:54:24;1015.6;;;-0.7;65.6
45113;BME280;30873;53.908;27.576;2022-11-20T21:59:19;1015.6;;;-0.6;65.5
45113;BME280;30873;53.908;27.576;2022-11-20T22:04:47;1015.6;;;-0.7;65.1
45113;BME280;30873;53.908;27.576;2022-11-20T22:09:20;1015.5;;;-0.9;65.7
45113;BME280;30873;53.908;27.576;2022-11-20T22:14:33;1015.4;;;-0.8;65.7
45113;BME280;30873;53.908;27.576;2022-11-20T22:19:01;1015.3;;;-0.7;65.5
45113;BME280;30873;53.908;27.576;2022-11-20T22:24:07;1015.2;;;-0.7;65.3
45113;BME280;30873;53.908;27.576;2022-11-20T22:29:17;1015.2;;;-0.8;65.3
45113;BME280;30873;53.908;27.576;2022-11-20T22:34:31;1015.1;;;-0.9;65.5
45113;BME280;30873;53.908;27.576;2022-11-20T22:39:33;1015;;;-1;65.7
45113;BME280;30873;53.908;27.576;2022-11-20T22:44:01;1015;;;-1;65.7
45113;BME280;30873;53.908;27.576;2022-11-20T22:49:01;1015.1;;;-1.2;66.1
45113;BME280;30873;53.908;27.576;2022-11-20T22:54:47;1015.1;;;-1.3;66.6
45113;BME280;30873;53.908;27.576;2022-11-20T22:59:45;1015;;;-1.1;66.5
45113;BME280;30873;53.908;27.576;2022-11-20T23:04:31;1015;;;-1.2;66.3
45113;BME280;30873;53.908;27.576;2022-11-20T23:09:01;1015;;;-1.1;66.6
45113;BME280;30873;53.908;27.576;2022-11-20T23:14:01;1015;;;-1.1;66.5
45113;BME280;30873;53.908;27.576;2022-11-20T23:19:45;1014.8;;;-1;66.2
45113;BME280;30873;53.908;27.576;2022-11-20T23:24:19;1014.7;;;-1;66
45113;BME280;30873;53.908;27.576;2022-11-20T23:29:17;1014.5;;;-0.9;65.8
45113;BME280;30873;53.908;27.576;2022-11-20T23:34:21;1014.6;;;-0.8;65.6
45113;BME280;30873;53.908;27.576;2022-11-20T23:39:07;1014.6;;;-0.8;65.3
45113;BME280;30873;53.908;27.576;2022-11-20T23:44:17;1014.6;;;-0.9;65.3
45113;BME280;30873;53.908;27.576;2022-11-20T23:49:31;1014.5;;;-1.1;65.7
45113;BME280;30873;53.908;27.576;2022-11-20T23:54:31;1014.4;;;-1.1;65.8
45113;BME280;30873;53.908;27.576;2022-11-20T23:59:31;1014.3;;;-1.2;66
